Terminal Aerodrome Forecast
Issued by NWS North Platte, NE

Home | Current Version | Previous Version | Text Only | Print | Product List | Glossary On
Versions: 1 2 3 4 5 6 7 8 9 10 11 12 13 14 15 16 17 18 19 20 21 22 23 24 25 26 27 28 29 30 31
000
FTUS43 KLBF 110526
TAFLBF
TAF
KLBF 110526Z 1106/1206 05015G25KT P6SM SCT250 WS020/24030KT
     FM110630 08010KT P6SM SCT250 WS020/24030KT
     FM111000 01010KT P6SM SCT200
     FM120200 04006KT P6SM FEW250=

USA.gov is the U.S. government's official web portal to all federal, state and local government web resources and services.